createdAt,value
2019-04-04T00:00:34.800Z,5.09
2019-04-04T00:03:07.964Z,5.00
2019-04-04T00:05:35.066Z,4.91
2019-04-04T00:08:02.147Z,4.83
2019-04-04T00:10:29.246Z,4.77
2019-04-04T00:12:56.295Z,4.72
2019-04-04T00:15:23.332Z,4.69
2019-04-04T00:17:51.833Z,4.68
2019-04-04T00:20:19.356Z,4.68
2019-04-04T00:22:46.410Z,4.66
2019-04-04T00:25:13.509Z,4.66
2019-04-04T00:27:42.040Z,4.63
2019-04-04T00:30:09.866Z,4.58
2019-04-04T00:32:36.977Z,4.56
2019-04-04T00:35:04.293Z,4.57
2019-04-04T00:37:31.339Z,4.60
2019-04-04T00:39:58.404Z,4.61
2019-04-04T00:42:25.457Z,4.64
2019-04-04T00:44:53.878Z,4.65
2019-04-04T00:47:22.088Z,4.64
2019-04-04T00:49:49.191Z,4.62
2019-04-04T00:52:16.222Z,4.59
2019-04-04T00:54:44.923Z,4.55
2019-04-04T00:57:12.393Z,4.55
2019-04-04T00:59:39.531Z,4.53
2019-04-04T01:02:06.582Z,4.53
2019-04-04T01:04:33.622Z,4.51
2019-04-04T01:07:00.644Z,4.50
2019-04-04T01:09:27.714Z,4.49
2019-04-04T01:11:54.753Z,4.43
2019-04-04T01:14:21.770Z,4.43
2019-04-04T01:16:48.831Z,4.41
2019-04-04T01:19:15.909Z,4.43
2019-04-04T01:21:42.989Z,4.47
2019-04-04T01:24:10.041Z,4.49
2019-04-04T01:26:37.092Z,4.53
2019-04-04T01:29:05.913Z,4.56
2019-04-04T01:31:33.036Z,4.55
2019-04-04T01:34:00.186Z,4.54
2019-04-04T01:36:27.254Z,4.52
2019-04-04T01:38:54.388Z,4.52
2019-04-04T01:41:21.405Z,4.52
2019-04-04T01:43:48.450Z,4.53
2019-04-04T01:46:15.776Z,4.48
2019-04-04T01:48:42.870Z,4.48
2019-04-04T01:51:11.083Z,4.47
2019-04-04T01:53:38.162Z,4.44
2019-04-04T01:56:06.796Z,4.39
2019-04-04T01:58:34.134Z,4.34
2019-04-04T02:01:01.213Z,4.36
2019-04-04T02:03:28.261Z,4.36
2019-04-04T02:05:56.206Z,4.36
2019-04-04T02:08:24.479Z,4.34
2019-04-04T02:10:51.528Z,4.32
2019-04-04T02:13:18.598Z,4.30
2019-04-04T02:15:45.643Z,4.31
2019-04-04T02:18:12.741Z,4.29
2019-04-04T02:20:39.828Z,4.30
2019-04-04T02:23:06.871Z,4.29
2019-04-04T02:25:34.727Z,4.29
2019-04-04T02:28:02.029Z,4.22
2019-04-04T02:30:29.291Z,4.11
2019-04-04T02:32:59.412Z,4.04
2019-04-04T02:35:25.306Z,4.02
2019-04-04T02:37:54.982Z,4.02
2019-04-04T02:40:21.301Z,4.03
2019-04-04T02:42:48.393Z,4.02
2019-04-04T02:45:15.436Z,4.00
2019-04-04T02:47:42.488Z,3.96
2019-04-04T02:50:10.284Z,3.88
2019-04-04T02:52:37.315Z,3.85
2019-04-04T02:55:05.237Z,3.83
2019-04-04T02:57:32.311Z,3.82
2019-04-04T03:00:08.703Z,3.80
2019-04-04T03:02:36.907Z,3.80
2019-04-04T03:05:04.525Z,3.79
2019-04-04T03:07:31.633Z,3.79
2019-04-04T03:09:58.668Z,3.76
2019-04-04T03:12:26.844Z,3.71
2019-04-04T03:15:01.024Z,3.68
2019-04-04T03:17:33.142Z,3.65
2019-04-04T03:20:02.234Z,3.66
2019-04-04T03:22:31.730Z,3.62
2019-04-04T03:25:07.125Z,3.62
2019-04-04T03:27:45.769Z,3.63
2019-04-04T03:30:23.599Z,3.67
2019-04-04T03:32:58.659Z,3.69
2019-04-04T03:35:37.390Z,3.66
2019-04-04T03:38:16.072Z,3.64
2019-04-04T03:40:57.302Z,3.64
2019-04-04T03:43:35.025Z,3.64
2019-04-04T03:46:12.690Z,3.66
2019-04-04T03:48:52.606Z,3.66
2019-04-04T03:51:30.571Z,3.70
2019-04-04T03:54:07.624Z,3.70
2019-04-04T03:56:42.572Z,3.70
2019-04-04T03:59:17.932Z,3.73
2019-04-04T04:01:52.871Z,3.75
2019-04-04T04:04:51.959Z,3.79
2019-04-04T04:07:28.323Z,3.82
2019-04-04T04:10:04.203Z,3.83
2019-04-04T04:12:37.223Z,3.81
2019-04-04T04:15:12.311Z,3.82
2019-04-04T04:17:46.614Z,3.84
2019-04-04T04:20:20.343Z,3.85
2019-04-04T04:22:54.623Z,3.89
2019-04-04T04:25:30.112Z,3.94
2019-04-04T04:28:04.741Z,4.00
2019-04-04T04:30:40.623Z,3.99
2019-04-04T04:33:10.147Z,3.98
2019-04-04T04:35:44.022Z,3.97
2019-04-04T04:38:12.269Z,3.98
2019-04-04T04:40:42.029Z,3.97
2019-04-04T04:43:10.422Z,3.98
2019-04-04T04:45:41.687Z,4.01
2019-04-04T04:48:12.357Z,4.03
2019-04-04T04:50:40.472Z,4.04
2019-04-04T04:53:08.785Z,4.04
2019-04-04T04:55:36.436Z,4.07
2019-04-04T04:58:03.760Z,4.01
2019-04-04T05:00:30.841Z,3.96
2019-04-04T05:03:54.184Z,3.95
2019-04-04T05:06:22.255Z,3.95
2019-04-04T05:08:49.356Z,3.95
2019-04-04T05:11:19.688Z,3.95
2019-04-04T05:13:46.893Z,3.96
2019-04-04T05:16:13.974Z,3.96
2019-04-04T05:18:41.058Z,3.95
2019-04-04T05:21:08.243Z,3.95
2019-04-04T05:23:35.293Z,3.96
2019-04-04T05:26:03.205Z,3.99
2019-04-04T05:28:30.386Z,4.00
2019-04-04T05:30:57.851Z,4.03
2019-04-04T05:33:27.023Z,4.06
2019-04-04T05:35:54.147Z,4.08
2019-04-04T05:38:21.663Z,4.10
2019-04-04T05:40:48.812Z,4.12
2019-04-04T05:43:35.303Z,4.15
2019-04-04T05:46:08.454Z,4.19
2019-04-04T05:48:36.806Z,4.21
2019-04-04T05:51:03.890Z,4.24
2019-04-04T05:53:31.069Z,4.26
2019-04-04T05:55:58.084Z,4.28
2019-04-04T05:58:25.151Z,4.31
2019-04-04T06:00:52.365Z,4.35
2019-04-04T06:03:19.442Z,4.39
2019-04-04T06:05:46.487Z,4.45
2019-04-04T06:08:13.641Z,4.50
2019-04-04T06:10:40.704Z,4.55
2019-04-04T06:13:07.787Z,4.59
2019-04-04T06:15:34.853Z,4.59
2019-04-04T06:18:01.903Z,4.61
2019-04-04T06:20:29.008Z,4.63
2019-04-04T06:22:56.055Z,4.65
2019-04-04T06:25:23.092Z,4.68
2019-04-04T06:27:50.168Z,4.77
2019-04-04T06:30:18.127Z,4.85
2019-04-04T06:32:47.777Z,4.95
2019-04-04T06:35:15.443Z,5.05
2019-04-04T06:37:45.882Z,5.13
2019-04-04T06:40:14.243Z,5.19
2019-04-04T06:42:41.323Z,5.26
2019-04-04T06:45:08.538Z,5.41
2019-04-04T06:47:35.594Z,5.50
2019-04-04T06:50:23.011Z,5.56
2019-04-04T06:56:06.769Z,5.73
2019-04-04T06:58:33.787Z,5.77
2019-04-04T07:01:00.845Z,5.79
2019-04-04T07:03:28.120Z,5.87
2019-04-04T07:05:55.343Z,5.96
2019-04-04T07:08:22.438Z,6.06
2019-04-04T07:10:57.835Z,6.16
2019-04-04T07:13:22.128Z,6.22
2019-04-04T07:16:03.435Z,6.31
2019-04-04T07:18:16.390Z,6.41
2019-04-04T07:20:43.496Z,6.50
2019-04-04T07:23:10.649Z,6.58
2019-04-04T07:25:39.470Z,6.65
2019-04-04T07:28:06.787Z,6.69
2019-04-04T07:30:33.842Z,6.72
2019-04-04T07:33:00.900Z,6.80
2019-04-04T07:35:28.010Z,6.97
2019-04-04T07:37:57.482Z,7.11
2019-04-04T07:40:24.024Z,7.21
2019-04-04T07:42:51.231Z,7.25
2019-04-04T07:45:18.293Z,7.31
2019-04-04T07:47:47.501Z,7.36
2019-04-04T07:50:14.353Z,7.38
2019-04-04T07:52:41.415Z,7.37
2019-04-04T07:55:10.934Z,7.41
2019-04-04T07:57:37.701Z,7.46
2019-04-04T08:00:05.561Z,7.56
2019-04-04T08:02:32.658Z,7.63
2019-04-04T08:05:19.947Z,7.68
2019-04-04T08:08:05.427Z,7.71
2019-04-04T08:10:32.537Z,7.75
2019-04-04T08:12:59.582Z,7.79
2019-04-04T08:15:26.903Z,7.85
2019-04-04T08:17:54.010Z,7.91
2019-04-04T08:20:21.084Z,8.04
2019-04-04T08:22:48.248Z,8.16
2019-04-04T08:25:15.303Z,8.25
2019-04-04T08:27:42.398Z,8.27
2019-04-04T08:30:09.553Z,8.33
2019-04-04T08:32:36.637Z,8.39
2019-04-04T08:35:04.581Z,8.47
2019-04-04T08:37:31.711Z,8.51
2019-04-04T08:39:58.746Z,8.58
2019-04-04T08:42:25.825Z,8.68
2019-04-04T08:44:52.873Z,8.87
2019-04-04T08:47:56.601Z,9.03
2019-04-04T08:50:44.177Z,9.22
2019-04-04T08:53:11.232Z,9.43
2019-04-04T08:55:38.284Z,9.52
2019-04-04T08:58:05.481Z,9.47
2019-04-04T09:00:51.141Z,9.47
2019-04-04T09:03:18.227Z,9.54
2019-04-04T09:05:45.337Z,9.69
2019-04-04T09:08:12.516Z,9.79
2019-04-04T09:10:39.587Z,9.82
2019-04-04T09:13:06.687Z,9.76
2019-04-04T09:15:33.746Z,9.73
2019-04-04T09:18:00.811Z,9.75
2019-04-04T09:20:27.874Z,9.84
2019-04-04T09:22:55.361Z,9.93
2019-04-04T09:25:22.410Z,9.95
2019-04-04T09:27:49.501Z,9.95
2019-04-04T09:30:17.071Z,9.94
2019-04-04T09:32:44.159Z,10.00
2019-04-04T09:35:11.601Z,10.03
2019-04-04T09:37:38.698Z,10.11
2019-04-04T09:40:09.772Z,10.24
2019-04-04T09:42:36.824Z,10.33
2019-04-04T09:45:04.839Z,10.41
2019-04-04T09:47:31.916Z,10.52
2019-04-04T09:49:58.973Z,10.52
2019-04-04T09:52:26.514Z,10.41
2019-04-04T09:54:53.600Z,10.47
2019-04-04T09:57:20.755Z,10.61
2019-04-04T09:59:47.798Z,10.70
2019-04-04T10:02:15.005Z,10.76
2019-04-04T10:04:42.056Z,10.82
2019-04-04T10:07:09.270Z,10.85
2019-04-04T10:09:36.362Z,10.89
2019-04-04T10:12:03.423Z,10.97
2019-04-04T10:14:30.546Z,10.94
2019-04-04T10:16:57.725Z,10.79
2019-04-04T10:19:24.780Z,10.81
2019-04-04T10:21:51.855Z,10.97
2019-04-04T10:24:19.997Z,11.09
2019-04-04T10:26:47.052Z,11.19
2019-04-04T10:29:14.148Z,11.37
2019-04-04T10:31:41.311Z,11.58
2019-04-04T10:34:08.353Z,11.70
2019-04-04T10:36:35.452Z,11.73
2019-04-04T10:39:04.850Z,11.60
2019-04-04T10:41:32.025Z,11.59
2019-04-04T10:43:59.075Z,11.53
2019-04-04T10:46:26.337Z,11.44
2019-04-04T10:48:53.518Z,11.37
2019-04-04T10:51:20.564Z,11.50
2019-04-04T10:53:47.671Z,11.56
2019-04-04T10:56:14.725Z,11.55
2019-04-04T10:58:41.783Z,11.60
2019-04-04T11:01:08.851Z,11.55
2019-04-04T11:03:54.370Z,11.41
2019-04-04T11:06:21.450Z,11.36
2019-04-04T11:08:48.559Z,11.36
2019-04-04T11:11:15.593Z,11.35
2019-04-04T11:13:42.750Z,11.40
2019-04-04T11:16:09.853Z,11.31
2019-04-04T11:18:36.898Z,11.33
2019-04-04T11:21:04.089Z,11.23
2019-04-04T11:23:31.142Z,10.99
2019-04-04T11:25:58.499Z,10.81
2019-04-04T11:28:25.584Z,10.74
2019-04-04T11:30:52.662Z,10.63
2019-04-04T11:33:19.715Z,10.48
2019-04-04T11:35:46.817Z,10.40
2019-04-04T11:38:13.866Z,10.31
2019-04-04T11:40:40.914Z,10.23
2019-04-04T11:43:08.016Z,10.15
2019-04-04T11:45:35.116Z,10.10
2019-04-04T11:48:25.499Z,10.08
2019-04-04T11:50:52.545Z,10.03
2019-04-04T11:53:19.950Z,9.97
2019-04-04T11:55:47.206Z,9.79
2019-04-04T11:58:14.269Z,9.76
2019-04-04T12:00:42.725Z,9.77
2019-04-04T12:03:09.868Z,9.81
2019-04-04T12:05:36.939Z,9.80
2019-04-04T12:08:04.175Z,9.78
2019-04-04T12:10:31.338Z,9.72
2019-04-04T12:12:58.786Z,9.60
2019-04-04T12:15:25.945Z,9.54
2019-04-04T12:17:53.028Z,9.56
2019-04-04T12:20:20.088Z,9.59
2019-04-04T12:22:47.145Z,9.58
2019-04-04T12:25:14.229Z,9.53
2019-04-04T12:27:41.306Z,9.51
2019-04-04T12:30:08.795Z,9.50
2019-04-04T12:32:35.887Z,9.52
2019-04-04T12:35:04.758Z,9.59
2019-04-04T12:37:31.823Z,9.63
2019-04-04T12:39:58.891Z,9.67
2019-04-04T12:42:25.970Z,9.54
2019-04-04T12:44:53.065Z,9.52
2019-04-04T12:47:20.110Z,9.48
2019-04-04T12:49:47.196Z,9.42
2019-04-04T12:52:14.251Z,9.45
2019-04-04T12:54:41.376Z,9.43
2019-04-04T12:57:08.450Z,9.42
2019-04-04T12:59:35.596Z,9.52
2019-04-04T13:02:02.716Z,9.58
2019-04-04T13:04:31.876Z,9.58
2019-04-04T13:06:58.859Z,9.58
2019-04-04T13:09:26.038Z,9.50
2019-04-04T13:11:53.380Z,9.41
2019-04-04T13:14:57.088Z,9.38
2019-04-04T13:17:24.143Z,9.32
2019-04-04T13:19:51.218Z,9.27
2019-04-04T13:22:18.322Z,9.25
2019-04-04T13:24:45.375Z,9.29
2019-04-04T13:27:12.496Z,9.38
2019-04-04T13:29:39.594Z,9.47
2019-04-04T13:32:06.663Z,9.53
2019-04-04T13:34:33.888Z,9.67
2019-04-04T13:37:01.200Z,9.77
2019-04-04T13:39:28.351Z,9.83
2019-04-04T13:41:55.400Z,9.77
2019-04-04T13:44:23.586Z,9.76
2019-04-04T13:46:51.243Z,9.76
2019-04-04T13:49:18.313Z,9.81
2019-04-04T13:51:45.490Z,9.86
2019-04-04T13:54:12.618Z,9.85
2019-04-04T13:56:39.856Z,9.75
2019-04-04T13:59:06.930Z,9.74
2019-04-04T14:01:34.004Z,9.73
2019-04-04T14:04:01.069Z,9.71
2019-04-04T14:07:23.452Z,9.76
2019-04-04T14:09:50.695Z,9.84
2019-04-04T14:12:17.738Z,9.86
2019-04-04T14:14:44.949Z,9.93
2019-04-04T14:17:18.326Z,9.97
2019-04-04T14:20:11.558Z,10.00
2019-04-04T14:22:38.631Z,9.96
2019-04-04T14:25:06.411Z,9.88
2019-04-04T14:27:33.637Z,9.91
2019-04-04T14:30:00.809Z,9.90
2019-04-04T14:32:27.979Z,9.90
2019-04-04T14:34:55.083Z,9.89
2019-04-04T14:37:22.137Z,9.90
2019-04-04T14:39:49.469Z,9.86
2019-04-04T14:42:16.521Z,9.82
2019-04-04T14:44:43.607Z,9.76
2019-04-04T14:47:49.537Z,9.68
2019-04-04T14:50:16.613Z,9.60
2019-04-04T14:52:43.685Z,9.47
2019-04-04T14:55:10.801Z,9.45
2019-04-04T14:57:37.890Z,9.40
2019-04-04T15:00:15.593Z,9.38
2019-04-04T15:02:42.385Z,9.34
2019-04-04T15:05:10.564Z,9.33
2019-04-04T15:07:56.013Z,9.29
2019-04-04T15:10:23.104Z,9.33
2019-04-04T15:12:51.411Z,9.38
2019-04-04T15:15:18.536Z,9.47
2019-04-04T15:17:45.912Z,9.57
2019-04-04T15:20:13.410Z,9.66
2019-04-04T15:22:40.618Z,9.74
2019-04-04T15:25:07.710Z,9.82
2019-04-04T15:27:34.938Z,9.94
2019-04-04T15:30:02.223Z,10.02
2019-04-04T15:32:29.359Z,10.07
2019-04-04T15:34:56.437Z,10.15
2019-04-04T15:37:24.774Z,10.23
2019-04-04T15:39:51.925Z,10.34
2019-04-04T15:42:18.999Z,10.43
2019-04-04T15:44:46.218Z,10.53
2019-04-04T15:47:13.295Z,10.70
2019-04-04T15:49:40.361Z,10.80
2019-04-04T15:52:07.451Z,10.78
2019-04-04T15:54:34.541Z,10.82
2019-04-04T15:57:01.593Z,10.80
2019-04-04T15:59:28.692Z,10.74
2019-04-04T16:01:55.955Z,10.71
2019-04-04T16:04:22.998Z,10.66
2019-04-04T16:06:50.133Z,10.60
2019-04-04T16:09:17.242Z,10.52
2019-04-04T16:11:49.754Z,10.45
2019-04-04T16:14:13.685Z,10.38
2019-04-04T16:16:40.767Z,10.29
2019-04-04T16:19:07.845Z,10.14
2019-04-04T16:21:34.969Z,10.03
2019-04-04T16:24:02.034Z,9.92
2019-04-04T16:26:30.559Z,9.81
2019-04-04T16:28:58.065Z,9.70
2019-04-04T16:31:25.142Z,9.58
2019-04-04T16:33:52.241Z,9.51
2019-04-04T16:36:19.343Z,9.47
2019-04-04T16:38:46.417Z,9.40
2019-04-04T16:41:14.628Z,9.37
2019-04-04T16:43:41.965Z,9.31
2019-04-04T16:46:09.046Z,9.27
2019-04-04T16:48:36.113Z,9.24
2019-04-04T16:51:03.300Z,9.22
2019-04-04T16:53:30.485Z,9.20
2019-04-04T16:55:57.556Z,9.16
2019-04-04T16:58:24.817Z,9.10
2019-04-04T17:00:51.882Z,9.07
2019-04-04T17:03:18.986Z,9.08
2019-04-04T17:05:46.029Z,9.18
2019-04-04T17:08:13.214Z,9.34
2019-04-04T17:10:40.585Z,9.46
2019-04-04T17:13:07.662Z,9.54
2019-04-04T17:15:34.831Z,9.59
2019-04-04T17:18:01.924Z,9.60
2019-04-04T17:20:28.995Z,9.51
2019-04-04T17:22:56.730Z,9.38
2019-04-04T17:25:23.891Z,9.29
2019-04-04T17:27:50.972Z,9.15
2019-04-04T17:30:18.669Z,9.01
2019-04-04T17:32:48.429Z,8.89
2019-04-04T17:35:14.868Z,8.79
2019-04-04T17:37:49.404Z,8.72
2019-04-04T17:40:16.809Z,8.63
2019-04-04T17:42:44.056Z,8.55
2019-04-04T17:45:11.712Z,8.49
2019-04-04T17:47:38.927Z,8.41
2019-04-04T17:50:08.524Z,8.32
2019-04-04T17:52:35.598Z,8.26
2019-04-04T17:55:03.328Z,8.20
2019-04-04T17:57:30.514Z,8.10
2019-04-04T17:59:57.582Z,8.01
2019-04-04T18:02:26.496Z,7.93
2019-04-04T18:04:53.610Z,7.83
2019-04-04T18:07:20.766Z,7.75
2019-04-04T18:09:47.891Z,7.62
2019-04-04T18:12:17.029Z,7.58
2019-04-04T18:14:44.334Z,7.49
2019-04-04T18:17:11.405Z,7.41
2019-04-04T18:19:47.836Z,7.35
2019-04-04T18:22:15.064Z,7.27
2019-04-04T18:24:42.131Z,7.21
2019-04-04T18:27:09.220Z,7.16
2019-04-04T18:29:36.316Z,7.10
2019-04-04T18:32:03.414Z,7.05
2019-04-04T18:34:30.601Z,7.00
2019-04-04T18:36:58.967Z,6.96
2019-04-04T18:39:26.608Z,6.92
2019-04-04T18:41:53.909Z,6.89
2019-04-04T18:44:21.050Z,6.84
2019-04-04T18:46:48.381Z,6.80
2019-04-04T18:49:15.460Z,6.76
2019-04-04T18:51:42.598Z,6.72
2019-04-04T18:54:09.758Z,6.69
2019-04-04T18:56:36.830Z,6.65
2019-04-04T18:59:04.005Z,6.63
2019-04-04T19:01:31.059Z,6.62
2019-04-04T19:03:58.414Z,6.61
2019-04-04T19:06:25.552Z,6.60
2019-04-04T19:08:59.692Z,6.56
2019-04-04T19:11:26.955Z,6.52
2019-04-04T19:13:54.307Z,6.46
2019-04-04T19:16:21.663Z,6.38
2019-04-04T19:18:48.791Z,6.33
2019-04-04T19:21:16.468Z,6.27
2019-04-04T19:23:49.397Z,6.21
2019-04-04T19:26:13.621Z,6.18
2019-04-04T19:28:41.150Z,6.19
2019-04-04T19:31:08.529Z,6.18
2019-04-04T19:33:35.612Z,6.15
2019-04-04T19:36:02.977Z,6.10
2019-04-04T19:38:30.019Z,6.07
2019-04-04T19:40:57.206Z,6.04
2019-04-04T19:43:25.425Z,6.04
2019-04-04T19:45:52.590Z,5.99
2019-04-04T19:48:19.666Z,5.97
2019-04-04T19:50:47.118Z,5.93
2019-04-04T19:53:14.401Z,5.91
2019-04-04T19:55:42.518Z,5.88
2019-04-04T19:58:09.879Z,5.88
2019-04-04T20:00:39.421Z,5.86
2019-04-04T20:03:06.587Z,5.84
2019-04-04T20:05:33.711Z,5.80
2019-04-04T20:08:01.325Z,5.76
2019-04-04T20:10:28.478Z,5.70
2019-04-04T20:13:10.988Z,5.64
2019-04-04T20:15:38.089Z,5.64
2019-04-04T20:18:05.164Z,5.56
2019-04-04T20:20:32.350Z,5.48
2019-04-04T20:22:59.491Z,5.41
2019-04-04T20:25:26.739Z,5.37
2019-04-04T20:27:55.167Z,5.30
2019-04-04T20:30:35.311Z,5.25
2019-04-04T20:33:02.529Z,5.24
2019-04-04T20:35:30.845Z,5.20
2019-04-04T20:37:57.947Z,5.17
2019-04-04T20:40:25.063Z,5.14
2019-04-04T20:42:52.171Z,5.13
2019-04-04T20:45:19.947Z,5.11
2019-04-04T20:47:47.005Z,5.04
2019-04-04T20:50:14.134Z,5.03
2019-04-04T20:52:41.402Z,5.03
2019-04-04T20:55:08.475Z,5.04
2019-04-04T20:57:35.586Z,5.00
2019-04-04T21:00:03.150Z,4.96
2019-04-04T21:02:30.566Z,4.91
2019-04-04T21:04:57.770Z,4.88
2019-04-04T21:07:25.467Z,4.87
2019-04-04T21:09:52.978Z,4.85
2019-04-04T21:12:20.855Z,4.86
2019-04-04T21:14:48.029Z,4.90
2019-04-04T21:17:18.754Z,4.93
2019-04-04T21:19:45.852Z,4.94
2019-04-04T21:22:26.575Z,4.97
2019-04-04T21:24:42.248Z,4.94
2019-04-04T21:27:09.466Z,4.83
2019-04-04T21:29:36.556Z,4.79
2019-04-04T21:32:05.681Z,4.74
2019-04-04T21:34:32.967Z,4.69
2019-04-04T21:37:00.041Z,4.70
2019-04-04T21:39:29.698Z,4.69
2019-04-04T21:41:56.310Z,4.72
2019-04-04T21:44:23.813Z,4.75
2019-04-04T21:46:50.807Z,4.76
2019-04-04T21:49:21.644Z,4.78
2019-04-04T21:51:48.996Z,4.81
2019-04-04T21:54:16.097Z,4.83
2019-04-04T21:56:43.229Z,4.86
2019-04-04T21:59:12.500Z,4.86
2019-04-04T22:01:39.929Z,4.88
2019-04-04T22:04:08.080Z,4.90
2019-04-04T22:06:35.379Z,4.91
2019-04-04T22:09:05.060Z,4.92
2019-04-04T22:11:32.164Z,4.85
2019-04-04T22:14:00.041Z,4.72
2019-04-04T22:16:27.132Z,4.67
2019-04-04T22:18:54.236Z,4.67
2019-04-04T22:21:21.492Z,4.69
2019-04-04T22:23:48.551Z,4.72
2019-04-04T22:26:15.929Z,4.72
2019-04-04T22:28:43.123Z,4.75
2019-04-04T22:31:11.809Z,4.78
2019-04-04T22:33:38.866Z,4.80
2019-04-04T22:36:05.957Z,4.80
2019-04-04T22:38:33.272Z,4.80
2019-04-04T22:41:00.331Z,4.81
2019-04-04T22:43:27.467Z,4.83
2019-04-04T22:45:54.554Z,4.89
2019-04-04T22:48:21.857Z,4.93
2019-04-04T22:50:49.093Z,4.96
2019-04-04T22:53:16.273Z,4.98
2019-04-04T22:55:44.301Z,5.00
2019-04-04T22:58:11.393Z,4.98
2019-04-04T23:00:38.758Z,4.95
2019-04-04T23:03:06.833Z,4.95
2019-04-04T23:05:34.636Z,4.98
2019-04-04T23:08:01.995Z,4.99
2019-04-04T23:10:30.826Z,4.98
2019-04-04T23:12:58.286Z,4.95
2019-04-04T23:15:25.323Z,4.91
2019-04-04T23:17:52.434Z,4.89
2019-04-04T23:20:19.526Z,4.88
2019-04-04T23:22:52.849Z,4.87
2019-04-04T23:25:15.628Z,4.88
2019-04-04T23:27:42.794Z,4.87
2019-04-04T23:30:18.190Z,4.87
2019-04-04T23:32:45.485Z,4.89
2019-04-04T23:35:12.547Z,4.88
2019-04-04T23:37:41.422Z,4.85
2019-04-04T23:40:08.762Z,4.85
2019-04-04T23:42:35.944Z,4.85
2019-04-04T23:45:04.077Z,4.84
2019-04-04T23:47:41.931Z,4.81
2019-04-04T23:50:00.179Z,4.80
2019-04-04T23:52:29.281Z,4.79
2019-04-04T23:55:14.785Z,4.79
2019-04-04T23:57:42.017Z,4.82
